Time;durP1;ratioP1;P1;durP2;ratioP2;P2;SDS_P1;SDS_P2;PMS_P1;PMS_P2;Temp;Humidity;BMP_temperature;BMP_pressure;BME280_temperature;BME280_humidity;BME280_pressure;Samples;Min_cycle;Max_cycle;Signal;HPM_P1;HPM_P2
2023/03/23 00:01:22;;;;;;;29.85;17.50;;;11.00;99.90;;;;;;4920656;29;20261;-77
2023/03/23 00:03:50;;;;;;;109.35;45.53;;;11.30;99.90;;;;;;4895427;29;20399;-79
2023/03/23 00:06:18;;;;;;;32.97;18.63;;;11.30;99.90;;;;;;4910753;29;20640;-78
2023/03/23 00:08:46;;;;;;;104.10;42.03;;;11.50;99.90;;;;;;4911358;29;20212;-78
2023/03/23 00:11:18;;;;;;;29.05;16.88;;;11.50;99.90;;;;;;4913664;29;20373;-78
2023/03/23 00:13:52;;;;;;;19.70;13.98;;;11.60;99.90;;;;;;4911901;29;20212;-78
2023/03/23 00:16:20;;;;;;;20.17;12.63;;;11.60;99.90;;;;;;4912564;29;20219;-78
2023/03/23 00:18:54;;;;;;;18.52;13.80;;;11.70;99.90;;;;;;4903473;29;20276;-79
2023/03/23 00:21:25;;;;;;;18.10;12.23;;;11.70;99.90;;;;;;4907070;29;20257;-78
2023/03/23 00:23:53;;;;;;;17.63;11.82;;;11.80;99.90;;;;;;4908958;29;20611;-79
2023/03/23 00:26:19;;;;;;;17.45;12.98;;;11.60;99.90;;;;;;4914666;29;20220;-79
2023/03/23 00:28:46;;;;;;;21.00;13.53;;;11.40;99.90;;;;;;4908629;29;20362;-79
2023/03/23 00:31:13;;;;;;;16.67;12.43;;;11.30;99.90;;;;;;4912544;29;20216;-79
2023/03/23 00:33:40;;;;;;;17.05;12.52;;;11.20;99.90;;;;;;4900027;29;20209;-79
2023/03/23 00:36:08;;;;;;;24.35;15.50;;;11.10;99.90;;;;;;4912090;29;20209;-79
2023/03/23 00:38:35;;;;;;;22.90;14.18;;;11.10;99.90;;;;;;4916065;29;20225;-80
2023/03/23 00:41:04;;;;;;;17.98;14.07;;;11.10;99.90;;;;;;4915108;29;20257;-79
2023/03/23 00:43:30;;;;;;;16.58;12.60;;;11.00;99.90;;;;;;4913021;29;20220;-79
2023/03/23 00:46:00;;;;;;;19.20;13.77;;;11.20;99.90;;;;;;4901878;29;20220;-76
2023/03/23 00:48:28;;;;;;;26.13;14.68;;;11.10;99.90;;;;;;4916588;29;20229;-79
2023/03/23 00:50:55;;;;;;;22.63;13.05;;;11.30;99.90;;;;;;4916960;29;20213;-78
2023/03/23 00:53:21;;;;;;;19.55;15.60;;;11.50;99.90;;;;;;4916871;29;20233;-79
2023/03/23 00:55:48;;;;;;;31.90;18.00;;;11.50;99.90;;;;;;4894816;29;20212;-78
2023/03/23 00:58:15;;;;;;;20.13;14.55;;;11.50;99.90;;;;;;4910136;29;20446;-78
2023/03/23 01:00:41;;;;;;;18.25;12.00;;;11.50;99.90;;;;;;4909641;29;20518;-77
2023/03/23 01:03:11;;;;;;;15.00;12.00;;;11.60;99.90;;;;;;4911709;29;20222;-78
2023/03/23 01:05:38;;;;;;;16.95;11.52;;;11.60;99.90;;;;;;4912747;29;20275;-78
2023/03/23 01:08:06;;;;;;;15.05;11.70;;;11.50;99.90;;;;;;4913046;29;20224;-78
2023/03/23 01:10:32;;;;;;;17.42;10.43;;;11.60;99.90;;;;;;4906109;29;20472;-80
2023/03/23 01:13:02;;;;;;;12.40;10.27;;;11.40;99.90;;;;;;4911367;29;20225;-79
2023/03/23 01:15:29;;;;;;;11.55;9.45;;;11.30;99.90;;;;;;4918369;29;20209;-78
2023/03/23 01:17:55;;;;;;;14.43;10.68;;;11.40;99.90;;;;;;4914461;29;20390;-79
2023/03/23 01:20:21;;;;;;;15.57;10.00;;;11.50;99.90;;;;;;4915972;29;20622;-77
2023/03/23 01:22:47;;;;;;;16.13;10.77;;;11.50;99.90;;;;;;4909540;29;20218;-78
2023/03/23 01:25:14;;;;;;;16.73;11.32;;;11.70;99.90;;;;;;4913257;29;20414;-78
2023/03/23 01:27:40;;;;;;;18.30;10.75;;;11.60;99.90;;;;;;4919516;29;20704;-77
2023/03/23 01:30:10;;;;;;;14.32;9.75;;;11.70;99.90;;;;;;4897214;29;20523;-77
2023/03/23 01:32:36;;;;;;;11.55;9.80;;;11.70;99.90;;;;;;4907274;29;20580;-78
2023/03/23 01:35:01;;;;;;;13.40;9.13;;;11.60;99.90;;;;;;4911064;29;20214;-78
2023/03/23 01:37:27;;;;;;;11.07;8.80;;;11.50;99.90;;;;;;4916930;29;20238;-78
2023/03/23 01:39:55;;;;;;;12.10;8.75;;;11.40;99.90;;;;;;4905369;29;20475;-78
2023/03/23 01:42:30;;;;;;;13.55;10.65;;;11.40;99.90;;;;;;4910704;29;20217;-78
2023/03/23 01:45:14;;;;;;;14.40;9.20;;;11.40;99.90;;;;;;4913074;29;20265;-78
2023/03/23 01:47:41;;;;;;;18.75;9.38;;;11.50;99.90;;;;;;4907638;29;20219;-77
2023/03/23 01:50:07;;;;;;;13.02;9.65;;;11.50;99.90;;;;;;4898549;29;20271;-78
2023/03/23 01:52:36;;;;;;;13.80;9.93;;;11.50;99.90;;;;;;4911244;29;20224;-78
2023/03/23 01:55:03;;;;;;;13.05;9.30;;;11.50;99.90;;;;;;4897976;29;20229;-79
2023/03/23 01:57:31;;;;;;;9.90;8.40;;;11.60;99.90;;;;;;4910510;29;20220;-80
2023/03/23 02:00:06;;;;;;;11.82;7.85;;;11.70;99.90;;;;;;4918252;29;20313;-80
2023/03/23 02:02:35;;;;;;;23.75;14.88;;;11.70;99.90;;;;;;4918019;29;20548;-79
2023/03/23 02:05:08;;;;;;;13.27;9.77;;;11.60;99.90;;;;;;4917994;29;20210;-78
2023/03/23 02:07:34;;;;;;;12.93;9.90;;;11.70;99.90;;;;;;4911765;29;20766;-78
2023/03/23 02:10:00;;;;;;;10.38;8.00;;;11.70;99.90;;;;;;4890022;29;20277;-78
2023/03/23 02:12:26;;;;;;;10.07;8.27;;;11.80;99.90;;;;;;4911590;29;20232;-78
2023/03/23 02:14:52;;;;;;;11.35;8.95;;;11.80;99.90;;;;;;4921355;29;20218;-80
2023/03/23 02:17:25;;;;;;;14.07;9.10;;;11.70;99.90;;;;;;4921723;29;20434;-78
2023/03/23 02:20:14;;;;;;;16.23;10.15;;;11.50;99.90;;;;;;4921547;29;20687;-78
2023/03/23 02:22:58;;;;;;;12.50;8.77;;;11.30;99.90;;;;;;4920810;29;20241;-78
2023/03/23 02:25:33;;;;;;;16.35;8.68;;;11.40;99.90;;;;;;4919642;29;20412;-78
2023/03/23 02:28:12;;;;;;;13.90;10.65;;;11.40;99.90;;;;;;4908282;29;20205;-76
2023/03/23 02:31:00;;;;;;;13.80;8.30;;;11.50;99.90;;;;;;4918094;29;20213;-79
2023/03/23 02:33:38;;;;;;;11.88;8.63;;;11.80;99.90;;;;;;4902136;29;20412;-78
2023/03/23 02:36:28;;;;;;;9.90;7.70;;;11.60;99.90;;;;;;4917311;29;20226;-79
2023/03/23 02:38:56;;;;;;;10.15;8.50;;;11.80;99.90;;;;;;4915059;29;20221;-78
2023/03/23 02:41:27;;;;;;;9.10;7.40;;;11.90;99.90;;;;;;4912708;29;20221;-78
2023/03/23 02:43:53;;;;;;;11.82;8.90;;;11.90;99.90;;;;;;4916555;29;20215;-80
2023/03/23 02:46:21;;;;;;;9.60;8.13;;;12.00;99.90;;;;;;4918305;29;20213;-78
2023/03/23 02:48:51;;;;;;;9.88;7.97;;;12.00;99.90;;;;;;4910303;29;20237;-80
2023/03/23 02:51:20;;;;;;;10.15;7.15;;;11.90;99.90;;;;;;4920033;29;20204;-79
2023/03/23 02:53:47;;;;;;;10.90;8.90;;;11.80;99.90;;;;;;4918718;29;20300;-80
2023/03/23 02:56:14;;;;;;;9.25;8.18;;;11.70;99.90;;;;;;4913234;29;20261;-79
2023/03/23 02:58:40;;;;;;;12.87;8.00;;;11.70;99.90;;;;;;4920421;29;20226;-78
2023/03/23 03:01:24;;;;;;;10.13;8.68;;;11.70;99.90;;;;;;4920375;29;20455;-78
2023/03/23 03:03:52;;;;;;;8.88;6.82;;;11.50;99.90;;;;;;4920604;29;20309;-78
2023/03/23 03:06:33;;;;;;;8.27;7.43;;;11.30;99.90;;;;;;4916210;29;20276;-78
2023/03/23 03:09:06;;;;;;;11.40;8.20;;;11.30;99.90;;;;;;4920126;29;20553;-78
2023/03/23 03:11:35;;;;;;;8.57;6.45;;;11.40;99.90;;;;;;4920458;29;20237;-77
2023/03/23 03:14:17;;;;;;;10.20;7.10;;;11.50;99.90;;;;;;4912630;29;20231;-77
2023/03/23 03:17:01;;;;;;;7.20;6.43;;;11.50;99.90;;;;;;4913206;29;20376;-78
2023/03/23 03:19:40;;;;;;;7.07;6.18;;;11.40;99.90;;;;;;4909310;29;20237;-79
2023/03/23 03:22:07;;;;;;;11.23;7.82;;;11.30;99.90;;;;;;4910300;29;20202;-78
2023/03/23 03:24:37;;;;;;;10.18;6.80;;;11.20;99.90;;;;;;4919007;29;20225;-77
2023/03/23 03:27:06;;;;;;;10.07;7.78;;;11.50;99.90;;;;;;4920179;29;20222;-77
2023/03/23 03:29:35;;;;;;;8.00;6.13;;;11.40;99.90;;;;;;4891663;29;20207;-77
2023/03/23 03:32:05;;;;;;;6.95;5.97;;;11.60;99.90;;;;;;4913520;29;20240;-78
2023/03/23 03:34:32;;;;;;;7.28;6.20;;;11.50;99.90;;;;;;4918641;29;20261;-77
2023/03/23 03:36:59;;;;;;;8.35;6.13;;;11.50;99.90;;;;;;4913601;29;20256;-78
2023/03/23 03:39:27;;;;;;;7.38;5.40;;;11.50;99.90;;;;;;4892131;29;20227;-79
2023/03/23 03:41:55;;;;;;;8.82;6.28;;;11.60;99.90;;;;;;4913327;29;20277;-78
2023/03/23 03:44:20;;;;;;;6.00;5.38;;;11.60;99.90;;;;;;4919022;29;20215;-77
2023/03/23 03:46:46;;;;;;;5.80;4.97;;;11.60;99.90;;;;;;4916705;29;20223;-78
2023/03/23 03:49:12;;;;;;;9.80;7.00;;;11.80;99.90;;;;;;4914536;29;20222;-80
2023/03/23 03:51:40;;;;;;;6.63;6.03;;;11.90;99.90;;;;;;4909271;29;20211;-79
2023/03/23 03:54:07;;;;;;;7.60;5.93;;;11.90;99.90;;;;;;4897537;29;20202;-79
2023/03/23 03:56:35;;;;;;;8.75;5.47;;;11.90;99.90;;;;;;4911770;29;20565;-78
2023/03/23 03:59:02;;;;;;;8.60;6.25;;;11.70;99.90;;;;;;4911860;29;20230;-79
2023/03/23 04:01:28;;;;;;;12.27;4.90;;;11.70;99.90;;;;;;4909308;29;20218;-78
2023/03/23 04:03:55;;;;;;;6.18;5.60;;;11.90;99.90;;;;;;4919582;29;20507;-77
2023/03/23 04:06:21;;;;;;;10.32;5.72;;;11.70;99.90;;;;;;4917765;29;20209;-77
2023/03/23 04:08:47;;;;;;;11.88;6.00;;;11.50;99.90;;;;;;4919639;29;20208;-78
2023/03/23 04:11:14;;;;;;;6.00;5.40;;;11.40;99.90;;;;;;4919865;29;20214;-78
2023/03/23 04:13:40;;;;;;;9.82;5.22;;;11.50;99.90;;;;;;4914179;29;20293;-80
2023/03/23 04:16:07;;;;;;;7.35;5.45;;;11.50;99.90;;;;;;4920541;29;20192;-79
2023/03/23 04:18:34;;;;;;;11.35;5.38;;;11.30;99.90;;;;;;4929790;29;20198;-78
2023/03/23 04:21:02;;;;;;;7.15;5.88;;;11.60;99.90;;;;;;4927642;29;20218;-80
2023/03/23 04:23:33;;;;;;;5.97;5.40;;;11.70;99.90;;;;;;4933951;29;20209;-80
2023/03/23 04:25:59;;;;;;;10.98;6.05;;;11.70;99.90;;;;;;4918748;29;20263;-80
2023/03/23 04:28:26;;;;;;;6.43;5.20;;;11.70;99.90;;;;;;4916559;29;20243;-80
2023/03/23 04:30:55;;;;;;;9.10;5.60;;;11.60;99.90;;;;;;4919490;29;20419;-82
2023/03/23 04:33:26;;;;;;;8.13;5.15;;;11.50;99.90;;;;;;4912082;29;20283;-79
2023/03/23 04:35:54;;;;;;;8.18;5.93;;;11.60;99.90;;;;;;4920961;29;20251;-78
2023/03/23 04:38:23;;;;;;;8.80;6.15;;;11.50;99.90;;;;;;4922216;29;20206;-82
2023/03/23 04:40:53;;;;;;;8.40;5.70;;;11.60;99.90;;;;;;4933381;29;20193;-80
2023/03/23 04:43:22;;;;;;;10.60;5.05;;;11.70;99.90;;;;;;4929011;29;20352;-79
2023/03/23 04:45:58;;;;;;;6.95;5.25;;;11.80;99.90;;;;;;4894032;29;20263;-78
2023/03/23 04:48:33;;;;;;;6.40;4.93;;;11.90;99.90;;;;;;4902784;29;20235;-78
2023/03/23 04:51:02;;;;;;;6.03;4.80;;;11.80;99.90;;;;;;4916658;29;20246;-77
2023/03/23 04:53:28;;;;;;;5.65;5.10;;;12.00;99.90;;;;;;4918839;29;20254;-79
2023/03/23 04:55:55;;;;;;;6.70;5.32;;;11.90;99.90;;;;;;4911256;29;20213;-80
2023/03/23 04:58:23;;;;;;;8.68;6.30;;;11.90;99.90;;;;;;4919299;29;20745;-80
2023/03/23 05:00:50;;;;;;;5.72;4.90;;;12.00;99.90;;;;;;4907965;29;20420;-80
2023/03/23 05:03:17;;;;;;;6.40;5.18;;;12.00;99.90;;;;;;4916858;29;20227;-79
2023/03/23 05:05:46;;;;;;;5.57;4.97;;;12.10;99.90;;;;;;4918903;29;20554;-79
2023/03/23 05:08:16;;;;;;;4.97;4.30;;;12.20;99.90;;;;;;4914335;29;20235;-78
2023/03/23 05:10:49;;;;;;;5.35;4.85;;;12.20;99.90;;;;;;4908482;29;20258;-79
2023/03/23 05:13:15;;;;;;;8.98;5.35;;;12.10;99.90;;;;;;4914833;29;20413;-78
2023/03/23 05:15:41;;;;;;;6.85;5.00;;;12.10;99.90;;;;;;4896106;29;20319;-78
2023/03/23 05:18:09;;;;;;;6.13;5.43;;;12.30;99.90;;;;;;4906720;29;20644;-78
2023/03/23 05:20:35;;;;;;;5.90;5.32;;;12.10;99.90;;;;;;4893026;29;20489;-79
2023/03/23 05:23:01;;;;;;;9.65;4.40;;;12.20;99.90;;;;;;4912943;29;20212;-78
2023/03/23 05:25:27;;;;;;;7.60;5.30;;;12.00;99.90;;;;;;4918861;29;20294;-78
2023/03/23 05:27:53;;;;;;;5.70;4.72;;;12.10;99.90;;;;;;4918817;29;20243;-78
2023/03/23 05:30:21;;;;;;;11.00;5.07;;;12.20;99.90;;;;;;4918650;29;20205;-79
2023/03/23 05:32:50;;;;;;;6.63;4.30;;;12.30;99.90;;;;;;4915757;29;20459;-81
2023/03/23 05:35:18;;;;;;;6.72;4.75;;;12.20;99.90;;;;;;4912467;29;20223;-78
2023/03/23 05:37:44;;;;;;;6.82;4.47;;;12.30;99.90;;;;;;4916962;29;20259;-78
2023/03/23 05:40:11;;;;;;;7.32;4.75;;;12.40;99.90;;;;;;4911353;29;20236;-78
2023/03/23 05:42:40;;;;;;;6.13;4.88;;;12.30;99.90;;;;;;4916075;29;20208;-81
2023/03/23 05:45:09;;;;;;;8.80;6.75;;;12.40;99.90;;;;;;4913809;29;20217;-79
2023/03/23 05:47:36;;;;;;;6.40;5.00;;;12.40;99.90;;;;;;4920511;29;20197;-80
2023/03/23 05:50:02;;;;;;;7.18;5.32;;;12.30;99.90;;;;;;4912200;29;20227;-81
2023/03/23 05:52:28;;;;;;;5.33;4.40;;;12.40;99.90;;;;;;4920797;29;20228;-79
2023/03/23 05:54:53;;;;;;;6.43;4.23;;;12.60;99.90;;;;;;4910637;29;20213;-78
2023/03/23 05:57:23;;;;;;;6.80;5.15;;;12.70;99.90;;;;;;4921902;29;20234;-80
2023/03/23 05:59:48;;;;;;;4.93;4.43;;;12.60;99.90;;;;;;4921185;29;20243;-78
2023/03/23 06:02:15;;;;;;;6.32;3.95;;;12.80;99.90;;;;;;4907930;29;20575;-78
2023/03/23 06:04:41;;;;;;;5.70;4.45;;;12.80;99.90;;;;;;4902948;29;20278;-79
2023/03/23 06:07:12;;;;;;;11.32;5.03;;;12.80;99.90;;;;;;4905888;29;20221;-78
2023/03/23 06:09:39;;;;;;;5.10;4.60;;;12.80;99.90;;;;;;4909144;29;20208;-79
2023/03/23 06:12:05;;;;;;;6.05;4.00;;;12.80;99.90;;;;;;4921669;29;20547;-79
2023/03/23 06:14:31;;;;;;;4.30;3.90;;;12.90;99.90;;;;;;4916296;29;20235;-79
2023/03/23 06:16:57;;;;;;;7.23;5.07;;;13.10;99.90;;;;;;4921225;29;20580;-78
2023/03/23 06:19:23;;;;;;;5.78;4.30;;;13.30;99.90;;;;;;4920543;29;20897;-78
2023/03/23 06:21:49;;;;;;;4.95;3.70;;;13.30;99.90;;;;;;4909185;29;20209;-77
2023/03/23 06:24:15;;;;;;;7.45;4.25;;;13.60;99.90;;;;;;4921144;29;20295;-78
2023/03/23 06:26:41;;;;;;;7.00;4.60;;;13.80;99.90;;;;;;4910972;29;20573;-78
2023/03/23 06:29:11;;;;;;;5.63;4.33;;;14.10;99.90;;;;;;4911661;29;20208;-78
2023/03/23 06:31:40;;;;;;;12.33;5.80;;;14.40;99.90;;;;;;4921377;29;20219;-78
2023/03/23 06:34:06;;;;;;;8.40;4.07;;;14.60;99.90;;;;;;4916454;29;20451;-79
2023/03/23 06:36:32;;;;;;;7.97;3.93;;;14.80;99.90;;;;;;4918655;29;20447;-76
2023/03/23 06:38:57;;;;;;;5.27;3.70;;;15.20;99.90;;;;;;4914897;29;20493;-77
2023/03/23 06:41:23;;;;;;;6.13;4.77;;;15.50;99.90;;;;;;4920109;29;20307;-77
2023/03/23 06:43:49;;;;;;;8.37;4.60;;;15.70;99.90;;;;;;4910156;29;20762;-78
2023/03/23 06:46:15;;;;;;;4.97;4.07;;;15.70;99.90;;;;;;4916227;29;20268;-78
2023/03/23 06:48:41;;;;;;;7.90;3.90;;;15.70;99.90;;;;;;4918303;29;20208;-79
2023/03/23 06:51:07;;;;;;;4.10;3.80;;;15.90;99.90;;;;;;4919799;29;20356;-80
2023/03/23 06:53:33;;;;;;;7.30;3.90;;;15.70;99.90;;;;;;4918771;29;20224;-79
2023/03/23 06:55:59;;;;;;;9.10;3.27;;;15.70;99.90;;;;;;4918561;29;20469;-77
2023/03/23 06:58:25;;;;;;;9.27;4.00;;;15.60;99.90;;;;;;4912235;29;20451;-77
2023/03/23 07:00:59;;;;;;;8.97;4.80;;;15.70;99.90;;;;;;4915117;29;20428;-79
2023/03/23 07:03:26;;;;;;;5.83;3.53;;;15.80;99.90;;;;;;4915291;29;20451;-77
2023/03/23 07:05:51;;;;;;;6.77;3.30;;;16.10;99.90;;;;;;4920383;29;20439;-77
2023/03/23 07:08:17;;;;;;;16.23;4.10;;;16.30;99.90;;;;;;4919776;29;20444;-77
2023/03/23 07:10:43;;;;;;;23.37;4.40;;;16.40;99.90;;;;;;4917214;29;20494;-78
2023/03/23 07:13:09;;;;;;;6.33;4.13;;;16.60;99.90;;;;;;4919364;29;20225;-80
2023/03/23 07:15:35;;;;;;;6.50;4.10;;;17.00;99.90;;;;;;4918575;29;20457;-78
2023/03/23 07:18:01;;;;;;;5.73;4.60;;;17.90;99.90;;;;;;4917581;29;20507;-78
2023/03/23 07:20:27;;;;;;;7.67;4.20;;;18.90;99.90;;;;;;4919543;29;20518;-80
2023/03/23 07:22:54;;;;;;;5.60;4.00;;;19.40;99.90;;;;;;4916430;29;20772;-78
2023/03/23 07:25:20;;;;;;;7.00;4.00;;;19.10;99.90;;;;;;4920122;29;20443;-78
2023/03/23 07:27:46;;;;;;;6.77;3.87;;;18.60;99.90;;;;;;4916934;29;20503;-78
2023/03/23 07:30:14;;;;;;;6.73;4.30;;;18.00;99.90;;;;;;4920412;29;20401;-77
2023/03/23 07:32:41;;;;;;;7.03;4.10;;;17.50;99.90;;;;;;4913782;29;20503;-77
2023/03/23 07:35:08;;;;;;;6.20;3.83;;;17.20;99.90;;;;;;4917275;29;20644;-77
2023/03/23 07:37:35;;;;;;;5.00;3.97;;;16.90;99.90;;;;;;4915661;29;20452;-78
2023/03/23 07:40:14;;;;;;;5.40;3.77;;;16.40;99.90;;;;;;4906320;29;20586;-77
2023/03/23 07:42:43;;;;;;;8.30;6.40;;;16.20;99.90;;;;;;4914482;29;20795;-77
2023/03/23 07:45:11;;;;;;;4.73;3.90;;;16.20;99.90;;;;;;4919538;29;20430;-78
2023/03/23 07:47:38;;;;;;;4.40;3.40;;;16.40;99.90;;;;;;4917773;29;20691;-79
2023/03/23 07:50:04;;;;;;;4.80;3.87;;;17.30;99.90;;;;;;4909859;29;20455;-77
2023/03/23 07:52:31;;;;;;;5.53;4.13;;;19.10;99.90;;;;;;4916921;29;20486;-79
2023/03/23 07:54:57;;;;;;;11.07;4.60;;;20.90;99.90;;;;;;4926184;29;20415;-80
2023/03/23 07:57:22;;;;;;;8.83;4.53;;;21.70;99.90;;;;;;4930187;29;20417;-79
2023/03/23 07:59:48;;;;;;;6.57;5.97;;;21.20;99.90;;;;;;4916053;29;20477;-77
2023/03/23 08:02:14;;;;;;;5.87;4.33;;;19.90;99.90;;;;;;4916304;29;20474;-78
2023/03/23 08:04:40;;;;;;;7.00;4.67;;;18.90;99.90;;;;;;4910784;29;20969;-78
2023/03/23 08:07:06;;;;;;;11.10;4.70;;;18.30;99.90;;;;;;4897724;29;20497;-78
2023/03/23 08:09:32;;;;;;;6.97;5.60;;;17.80;99.90;;;;;;4911823;29;20260;-78
2023/03/23 08:11:58;;;;;;;5.63;5.00;;;17.50;99.90;;;;;;4886202;29;20298;-78
2023/03/23 08:14:27;;;;;;;6.23;4.83;;;17.40;99.90;;;;;;4908413;29;20221;-78
2023/03/23 08:16:55;;;;;;;7.63;5.60;;;17.40;99.90;;;;;;4917587;29;20454;-78
2023/03/23 08:19:22;;;;;;;7.27;5.37;;;17.50;99.90;;;;;;4912536;29;20846;-78
2023/03/23 08:21:49;;;;;;;4.47;3.80;;;18.00;99.90;;;;;;4916018;29;20460;-77
2023/03/23 08:24:15;;;;;;;8.27;4.73;;;18.60;99.90;;;;;;4912419;29;20414;-81
2023/03/23 08:26:41;;;;;;;8.00;4.43;;;19.40;99.90;;;;;;4916266;29;20504;-79
2023/03/23 08:29:08;;;;;;;7.47;4.07;;;21.80;99.90;;;;;;4912980;29;20656;-81
2023/03/23 08:31:35;;;;;;;6.10;3.73;;;23.40;99.90;;;;;;4908895;29;20437;-81
2023/03/23 08:34:07;;;;;;;8.53;4.30;;;23.50;99.90;;;;;;4911321;29;20790;-80
2023/03/23 08:36:35;;;;;;;5.27;3.87;;;23.70;99.90;;;;;;4909233;29;20861;-79
2023/03/23 08:39:01;;;;;;;4.03;3.10;;;23.60;99.90;;;;;;4909933;29;20475;-79
2023/03/23 08:41:26;;;;;;;4.80;2.80;;;23.60;99.90;;;;;;4911092;29;20454;-78
2023/03/23 08:43:52;;;;;;;3.73;3.00;;;24.10;99.90;;;;;;4895038;29;20519;-78
2023/03/23 08:46:19;;;;;;;3.77;2.97;;;23.30;99.90;;;;;;4916400;29;20517;-78
2023/03/23 08:48:45;;;;;;;4.20;2.87;;;22.40;99.90;;;;;;4917024;29;20272;-78
2023/03/23 08:51:11;;;;;;;3.50;3.20;;;22.10;99.90;;;;;;4936177;29;20455;-80
2023/03/23 08:53:38;;;;;;;4.57;2.57;;;23.90;99.90;;;;;;4922597;29;20429;-79
2023/03/23 08:56:09;;;;;;;4.53;3.13;;;25.60;99.40;;;;;;4938002;29;20427;-80
2023/03/23 08:58:36;;;;;;;3.70;2.90;;;26.50;95.30;;;;;;4930645;29;20437;-79
2023/03/23 09:01:03;;;;;;;6.07;3.10;;;26.80;91.30;;;;;;4914148;29;20458;-78
2023/03/23 09:03:29;;;;;;;4.70;3.40;;;25.30;93.80;;;;;;4906539;29;20447;-79
2023/03/23 09:05:59;;;;;;;3.30;3.00;;;24.70;96.60;;;;;;4903836;29;21146;-79
2023/03/23 09:08:28;;;;;;;3.73;3.40;;;23.80;97.20;;;;;;4914012;29;20441;-80
2023/03/23 09:11:04;;;;;;;4.60;3.30;;;22.50;99.60;;;;;;4902794;29;20495;-78
2023/03/23 09:13:31;;;;;;;4.20;2.73;;;21.80;99.90;;;;;;4893998;29;20441;-79
2023/03/23 09:15:57;;;;;;;4.47;2.80;;;21.40;99.90;;;;;;4914783;29;20533;-78
2023/03/23 09:18:23;;;;;;;6.27;3.10;;;21.30;99.90;;;;;;4911223;29;20504;-78
2023/03/23 09:20:53;;;;;;;3.83;3.10;;;21.00;99.90;;;;;;4921194;29;20472;-78
2023/03/23 09:23:20;;;;;;;3.50;3.20;;;20.60;99.90;;;;;;4913176;29;20417;-78
2023/03/23 09:25:46;;;;;;;4.47;3.50;;;20.70;99.90;;;;;;4918490;29;20423;-78
2023/03/23 09:28:13;;;;;;;4.10;3.30;;;21.00;99.90;;;;;;4922065;29;20537;-78
2023/03/23 09:30:40;;;;;;;4.20;3.63;;;20.90;99.90;;;;;;4921412;29;20601;-77
2023/03/23 09:33:07;;;;;;;3.60;2.97;;;20.70;99.90;;;;;;4900717;29;20442;-78
2023/03/23 09:35:35;;;;;;;5.20;2.90;;;20.40;99.90;;;;;;4920326;29;20489;-79
2023/03/23 09:38:03;;;;;;;6.23;3.63;;;20.50;99.90;;;;;;4910744;29;20433;-81
2023/03/23 09:41:09;;;;;;;3.63;2.33;;;20.50;99.90;;;;;;4918612;29;20916;-78
2023/03/23 09:44:06;;;;;;;5.17;2.60;;;20.90;99.90;;;;;;4874943;29;20423;-77
2023/03/23 09:46:56;;;;;;;3.80;2.87;;;21.50;99.90;;;;;;4916270;29;20443;-79
2023/03/23 09:49:37;;;;;;;5.43;2.80;;;21.90;99.90;;;;;;4911716;29;20433;-79
2023/03/23 09:52:17;;;;;;;3.00;2.70;;;21.90;99.90;;;;;;4911974;29;20433;-79
2023/03/23 09:54:46;;;;;;;3.67;2.50;;;21.80;99.90;;;;;;4913431;29;20501;-77
2023/03/23 09:57:57;;;;;;;5.67;3.40;;;21.50;99.90;;;;;;4922227;29;20516;-77
2023/03/23 10:00:34;;;;;;;6.73;3.33;;;21.40;99.90;;;;;;4871866;29;20490;-78
2023/03/23 10:03:10;;;;;;;6.13;2.83;;;21.20;99.90;;;;;;4912456;29;20452;-78
2023/03/23 10:05:40;;;;;;;2.93;2.30;;;21.00;99.90;;;;;;4920069;29;20780;-80
2023/03/23 10:08:13;;;;;;;2.20;2.00;;;21.20;99.90;;;;;;4916871;29;20852;-78
2023/03/23 10:10:47;;;;;;;2.27;2.07;;;21.20;99.90;;;;;;4918982;29;20432;-78
2023/03/23 10:13:32;;;;;;;2.20;1.90;;;21.40;99.90;;;;;;4916318;29;20471;-79
2023/03/23 10:16:00;;;;;;;5.83;2.53;;;21.70;99.90;;;;;;4915541;29;20758;-78
2023/03/23 10:18:51;;;;;;;3.37;2.47;;;22.10;99.90;;;;;;4921415;29;20442;-78
2023/03/23 10:21:21;;;;;;;8.13;2.60;;;22.50;99.90;;;;;;4901456;29;20427;-78
2023/03/23 10:24:00;;;;;;;4.80;1.80;;;23.10;99.90;;;;;;4919553;29;20465;-79
2023/03/23 10:26:44;;;;;;;6.67;1.83;;;23.20;99.90;;;;;;4909030;29;20498;-78
2023/03/23 10:29:30;;;;;;;5.53;2.23;;;22.80;99.90;;;;;;4902258;29;20444;-78
2023/03/23 10:32:01;;;;;;;2.43;1.57;;;22.50;99.90;;;;;;4915187;29;20569;-77
2023/03/23 10:34:58;;;;;;;2.20;1.50;;;22.70;99.90;;;;;;4920710;29;20433;-80
2023/03/23 10:37:32;;;;;;;8.90;2.20;;;22.60;99.90;;;;;;4898414;29;20837;-79
2023/03/23 10:40:09;;;;;;;2.40;1.37;;;22.30;99.90;;;;;;4907578;29;20442;-76
2023/03/23 10:42:38;;;;;;;2.90;1.97;;;21.90;99.90;;;;;;4907323;29;20446;-77
2023/03/23 10:45:15;;;;;;;5.83;2.00;;;21.70;99.90;;;;;;4915559;29;20604;-78
2023/03/23 10:47:49;;;;;;;2.23;1.67;;;21.50;99.90;;;;;;4920824;29;20432;-81
2023/03/23 10:50:21;;;;;;;3.43;1.77;;;21.30;99.90;;;;;;4911256;29;20583;-80
2023/03/23 10:52:53;;;;;;;5.83;1.90;;;20.60;99.90;;;;;;4908569;29;20431;-78
2023/03/23 10:55:22;;;;;;;1.97;1.50;;;20.50;99.90;;;;;;4912547;29;20445;-77
2023/03/23 10:58:06;;;;;;;1.97;1.40;;;20.70;99.90;;;;;;4912459;29;20492;-78
2023/03/23 11:00:33;;;;;;;2.37;1.50;;;21.00;99.90;;;;;;4918628;29;20506;-78
2023/03/23 11:03:02;;;;;;;2.30;1.50;;;21.40;99.90;;;;;;4915095;29;20485;-79
2023/03/23 11:05:57;;;;;;;3.00;1.60;;;21.80;99.90;;;;;;4910813;29;20422;-79
2023/03/23 11:08:25;;;;;;;1.60;1.50;;;22.10;99.90;;;;;;4919817;29;20798;-79
2023/03/23 11:10:54;;;;;;;2.20;2.00;;;22.20;99.90;;;;;;4890683;29;20443;-79
2023/03/23 11:13:22;;;;;;;3.57;2.10;;;21.90;99.90;;;;;;4912357;29;20413;-78
2023/03/23 11:15:49;;;;;;;1.83;1.40;;;21.90;99.90;;;;;;4911716;29;20777;-79
2023/03/23 11:18:43;;;;;;;1.40;1.30;;;21.40;99.90;;;;;;4918879;29;20413;-78
2023/03/23 11:21:13;;;;;;;3.73;1.57;;;21.20;99.90;;;;;;4913730;29;20433;-80
2023/03/23 11:23:47;;;;;;;4.33;1.87;;;21.20;99.90;;;;;;4915678;29;20480;-79
2023/03/23 11:26:24;;;;;;;1.33;1.23;;;21.10;99.90;;;;;;4914832;29;20460;-79
2023/03/23 11:29:10;;;;;;;1.47;1.37;;;20.90;99.90;;;;;;4918932;29;20454;-78
2023/03/23 11:31:45;;;;;;;3.10;1.47;;;21.00;99.90;;;;;;4904714;29;21105;-79
2023/03/23 11:34:23;;;;;;;5.03;2.17;;;20.70;99.90;;;;;;4902221;29;20445;-78
2023/03/23 11:36:54;;;;;;;1.73;1.40;;;20.90;99.90;;;;;;4904871;29;20436;-80
2023/03/23 11:39:27;;;;;;;2.10;1.80;;;21.40;99.90;;;;;;4906247;29;20455;-79
2023/03/23 11:41:54;;;;;;;1.57;1.47;;;21.60;99.90;;;;;;4912446;29;20462;-79
2023/03/23 11:44:23;;;;;;;2.33;1.57;;;21.50;99.90;;;;;;4912112;29;20443;-80
2023/03/23 11:47:20;;;;;;;2.00;1.53;;;21.40;99.90;;;;;;4900312;29;20434;-80
2023/03/23 11:50:08;;;;;;;5.10;1.60;;;21.50;99.90;;;;;;4914070;29;20794;-79
2023/03/23 11:52:53;;;;;;;1.67;1.57;;;21.10;99.90;;;;;;4915542;29;20474;-77
2023/03/23 11:55:24;;;;;;;2.80;2.10;;;21.20;99.90;;;;;;4908286;29;20433;-80
2023/03/23 11:57:50;;;;;;;1.40;1.30;;;21.20;99.90;;;;;;4915908;29;20675;-80
2023/03/23 12:00:19;;;;;;;1.80;1.50;;;21.00;99.90;;;;;;4911636;29;20464;-79
2023/03/23 12:03:25;;;;;;;2.23;1.63;;;20.80;99.90;;;;;;4918718;29;20441;-82
2023/03/23 12:06:06;;;;;;;3.50;2.50;;;20.30;99.90;;;;;;4911542;29;20483;-80
2023/03/23 12:08:48;;;;;;;2.17;1.97;;;19.90;99.90;;;;;;4898881;29;20456;-78
2023/03/23 12:12:12;;;;;;;4.93;1.63;;;19.90;99.90;;;;;;4903313;29;20427;-80
2023/03/23 12:14:44;;;;;;;2.30;1.50;;;19.70;99.90;;;;;;4837770;29;20799;-78
2023/03/23 12:17:39;;;;;;;3.03;1.93;;;19.60;99.90;;;;;;4846272;29;20430;-79
2023/03/23 12:20:14;;;;;;;5.77;1.83;;;19.80;99.90;;;;;;4910677;29;20636;-78
2023/03/23 12:22:58;;;;;;;3.50;2.40;;;20.10;99.90;;;;;;4915038;29;20458;-78
2023/03/23 12:25:29;;;;;;;2.47;2.23;;;20.20;99.90;;;;;;4908637;29;20422;-78
2023/03/23 12:28:10;;;;;;;2.50;1.97;;;20.40;99.90;;;;;;4911564;29;20511;-79
2023/03/23 12:30:51;;;;;;;1.67;1.53;;;20.50;99.90;;;;;;4909354;29;20418;-77
2023/03/23 12:33:45;;;;;;;5.00;3.20;;;20.80;99.90;;;;;;4892762;29;20429;-79
2023/03/23 12:36:55;;;;;;;2.43;1.70;;;20.90;99.90;;;;;;4879142;29;20863;-77
2023/03/23 12:39:30;;;;;;;4.40;2.13;;;20.50;99.90;;;;;;4893295;29;20459;-79
2023/03/23 12:42:02;;;;;;;1.93;1.83;;;20.40;99.90;;;;;;4909048;29;20669;-78
2023/03/23 12:44:55;;;;;;;2.37;1.90;;;20.40;99.90;;;;;;4892824;29;20460;-78
2023/03/23 12:47:44;;;;;;;1.77;1.60;;;20.30;99.90;;;;;;4890861;29;20440;-79
2023/03/23 12:50:48;;;;;;;6.93;2.97;;;20.20;99.90;;;;;;4909170;29;20444;-77
2023/03/23 12:53:25;;;;;;;3.90;2.23;;;20.10;99.90;;;;;;4911732;29;20432;-79
2023/03/23 12:56:16;;;;;;;1.83;1.70;;;20.20;99.90;;;;;;4890037;29;20430;-79
2023/03/23 12:58:50;;;;;;;1.73;1.40;;;20.10;99.90;;;;;;4916431;29;20479;-81
2023/03/23 13:01:30;;;;;;;1.67;1.57;;;20.20;99.90;;;;;;4913900;29;20453;-79
2023/03/23 13:04:11;;;;;;;6.70;2.00;;;20.40;99.90;;;;;;4907354;29;20414;-79